Fort Story, Virginia
Current Conditions -  °F | °C
As of 1:56 PM on Thursday 23 Oct 2014 (Local Time) from KNTU Reporting Station
Broken Clouds Broken Clouds  
Wind Chill: 63°   Ceiling: 3600
Heat Index: 63°   Visibility: 10mi
Dew Point: 46°   Wind: 20mph
Humidity: 54%   Direction: 320°NW
Pressure: 29.84"   Gusts: 29mph
Location:  36.922°N, 76.0108°W
Report Text: KNTU 231756Z 32017G25KT 10SM BKN036 17/08 A2984 RMK AO2 SLP106 T01720078 10183 20128 58010
Loading
Personal Weather Stations






























Interactive Weather Map
Tropical Storm Tracking
New forecast layout! Learn more

10-Day Weather Forecast

Advertisements
Track Severe Weather on mobile